createdAt,value
2023-03-29T00:01:00.388Z,3.93
2023-03-29T00:06:06.043Z,4.43
2023-03-29T00:11:09.948Z,4.23
2023-03-29T00:16:14.171Z,5.80
2023-03-29T00:21:19.059Z,4.63
2023-03-29T00:26:22.520Z,7.40
2023-03-29T00:31:26.274Z,4.57
2023-03-29T00:36:31.751Z,6.13
2023-03-29T00:41:35.346Z,5.67
2023-03-29T00:46:38.840Z,4.87
2023-03-29T00:51:44.648Z,5.10
2023-03-29T00:56:52.523Z,5.10
2023-03-29T01:02:02.323Z,6.97
2023-03-29T01:07:13.605Z,5.37
2023-03-29T01:12:21.373Z,5.33
2023-03-29T01:17:25.618Z,5.83
2023-03-29T01:22:41.767Z,5.10
2023-03-29T01:27:54.954Z,5.27
2023-03-29T01:33:03.626Z,5.67
2023-03-29T01:38:13.453Z,6.70
2023-03-29T01:43:25.571Z,13.03
2023-03-29T01:48:33.798Z,4.40
2023-03-29T01:53:41.782Z,7.43
2023-03-29T01:58:52.696Z,8.17
2023-03-29T02:04:00.716Z,6.67
2023-03-29T02:09:04.961Z,5.73
2023-03-29T02:14:10.063Z,6.83
2023-03-29T02:19:15.472Z,6.90
2023-03-29T02:24:21.220Z,6.33
2023-03-29T02:29:26.606Z,6.17
2023-03-29T02:34:33.869Z,9.73
2023-03-29T02:39:39.682Z,6.87
2023-03-29T02:44:47.328Z,6.03
2023-03-29T02:49:51.877Z,8.37
2023-03-29T02:54:57.221Z,7.83
2023-03-29T03:00:13.428Z,7.53
2023-03-29T03:05:17.632Z,7.93
2023-03-29T03:10:21.078Z,7.90
2023-03-29T03:15:26.469Z,9.00
2023-03-29T03:20:31.221Z,7.30
2023-03-29T03:25:36.253Z,6.90
2023-03-29T03:30:41.175Z,11.00
2023-03-29T03:35:57.229Z,8.77
2023-03-29T03:41:01.498Z,7.73
2023-03-29T03:46:10.613Z,7.33
2023-03-29T03:51:14.475Z,8.23
2023-03-29T03:56:18.569Z,8.93
2023-03-29T04:01:43.599Z,7.53
2023-03-29T04:06:55.280Z,10.43
2023-03-29T04:12:12.901Z,8.10
2023-03-29T04:17:19.679Z,9.33
2023-03-29T04:22:31.669Z,9.30
2023-03-29T04:27:35.415Z,8.93
2023-03-29T04:32:44.739Z,9.57
2023-03-29T04:37:48.472Z,7.97
2023-03-29T04:42:54.516Z,7.03
2023-03-29T04:48:01.155Z,9.20
2023-03-29T04:53:04.996Z,8.23
2023-03-29T04:58:09.105Z,8.67
2023-03-29T05:03:17.066Z,6.67
2023-03-29T05:08:30.139Z,9.33
2023-03-29T05:13:44.925Z,8.47
2023-03-29T05:18:50.055Z,7.30
2023-03-29T05:23:54.706Z,8.27
2023-03-29T05:28:58.359Z,8.97
2023-03-29T05:34:04.495Z,8.90
2023-03-29T05:39:11.024Z,8.23
2023-03-29T05:44:14.789Z,7.90
2023-03-29T05:49:22.518Z,6.70
2023-03-29T05:54:35.485Z,7.83
2023-03-29T05:59:39.971Z,5.53
2023-03-29T06:04:45.470Z,8.10
2023-03-29T06:10:00.783Z,11.10
2023-03-29T06:15:05.145Z,7.13
2023-03-29T06:20:19.201Z,5.57
2023-03-29T06:25:28.418Z,8.50
2023-03-29T06:30:32.500Z,9.50
2023-03-29T06:35:39.123Z,8.37
2023-03-29T06:40:46.458Z,7.77
2023-03-29T06:45:50.120Z,6.47
2023-03-29T06:51:23.207Z,7.07
2023-03-29T06:56:27.442Z,7.67
2023-03-29T07:01:38.344Z,8.33
2023-03-29T07:07:02.645Z,7.63
2023-03-29T07:12:10.445Z,7.60
2023-03-29T07:17:14.147Z,9.53
2023-03-29T07:22:20.516Z,8.53
2023-03-29T07:27:28.845Z,7.83
2023-03-29T07:32:32.965Z,9.90
2023-03-29T07:37:56.509Z,8.77
2023-03-29T07:43:03.064Z,9.80
2023-03-29T07:48:08.825Z,6.83
2023-03-29T07:53:37.248Z,25.13
2023-03-29T07:58:47.784Z,8.57
2023-03-29T08:03:52.736Z,8.77
2023-03-29T08:09:01.799Z,6.90
2023-03-29T08:14:05.660Z,6.80
2023-03-29T08:19:30.734Z,9.70
2023-03-29T08:24:46.474Z,9.53
2023-03-29T08:29:50.681Z,7.93
2023-03-29T08:34:54.448Z,11.23
2023-03-29T08:40:04.218Z,9.83
2023-03-29T08:45:37.070Z,12.00
2023-03-29T08:50:48.075Z,11.17
2023-03-29T08:55:57.067Z,10.57
2023-03-29T09:01:18.783Z,19.30
2023-03-29T09:06:28.987Z,22.37
2023-03-29T09:12:07.466Z,26.67
2023-03-29T09:17:27.397Z,11.40
2023-03-29T09:22:41.598Z,15.77
2023-03-29T09:27:50.716Z,13.33
2023-03-29T09:33:05.608Z,12.57
2023-03-29T09:38:23.781Z,12.00
2023-03-29T09:43:33.291Z,9.97
2023-03-29T09:48:42.393Z,12.17
2023-03-29T09:53:47.197Z,10.70
2023-03-29T09:59:07.351Z,11.33
2023-03-29T10:04:12.467Z,15.63
2023-03-29T10:09:22.102Z,12.60
2023-03-29T10:14:35.185Z,11.87
2023-03-29T10:19:38.864Z,12.37
2023-03-29T10:24:48.385Z,11.33
2023-03-29T10:29:54.400Z,8.83
2023-03-29T10:35:06.002Z,9.20
2023-03-29T10:40:22.034Z,7.40
2023-03-29T10:45:29.891Z,6.70
2023-03-29T10:50:38.221Z,7.07
2023-03-29T10:55:54.615Z,5.73
2023-03-29T11:01:00.292Z,6.93
2023-03-29T11:06:11.257Z,11.57
2023-03-29T11:11:41.296Z,7.93
2023-03-29T11:16:55.932Z,8.50
2023-03-29T11:22:06.841Z,12.23
2023-03-29T11:27:20.902Z,11.63
2023-03-29T11:32:34.693Z,8.33
2023-03-29T11:37:46.740Z,5.83
2023-03-29T11:42:55.047Z,5.43
2023-03-29T11:48:03.188Z,5.57
2023-03-29T11:53:09.991Z,4.13
2023-03-29T11:58:19.872Z,5.90
2023-03-29T12:03:37.220Z,6.80
2023-03-29T12:08:46.886Z,4.97
2023-03-29T12:13:55.209Z,3.57
2023-03-29T12:19:06.060Z,2.20
2023-03-29T12:24:13.275Z,3.37
2023-03-29T12:29:33.923Z,3.10
2023-03-29T12:34:56.089Z,4.43
2023-03-29T12:40:27.592Z,3.40
2023-03-29T12:46:09.849Z,4.30
2023-03-29T12:51:17.605Z,4.70
2023-03-29T12:56:23.776Z,3.93
2023-03-29T13:01:30.126Z,4.47
2023-03-29T13:06:53.725Z,4.83
2023-03-29T13:12:00.816Z,5.87
2023-03-29T13:17:17.719Z,8.83
2023-03-29T13:22:35.749Z,6.63
2023-03-29T13:27:47.907Z,12.13
2023-03-29T13:33:05.612Z,8.27
2023-03-29T13:38:19.661Z,8.40
2023-03-29T13:43:32.734Z,10.20
2023-03-29T13:49:01.303Z,9.70
2023-03-29T13:54:15.002Z,7.37
2023-03-29T13:59:22.222Z,8.97
2023-03-29T14:04:28.824Z,5.83
2023-03-29T14:09:37.384Z,6.00
2023-03-29T14:14:59.510Z,5.50
2023-03-29T14:20:08.981Z,6.67
2023-03-29T14:25:18.534Z,5.07
2023-03-29T14:30:27.536Z,4.63
2023-03-29T14:35:33.974Z,6.10
2023-03-29T14:40:38.952Z,6.80
2023-03-29T14:45:42.683Z,6.70
2023-03-29T14:50:48.060Z,4.30
2023-03-29T14:55:55.647Z,7.33
2023-03-29T15:01:00.522Z,6.00
2023-03-29T15:06:05.938Z,6.77
2023-03-29T15:11:16.955Z,5.43
2023-03-29T15:16:22.949Z,6.93
2023-03-29T15:21:32.005Z,5.37
2023-03-29T15:26:40.870Z,5.63
2023-03-29T15:31:55.273Z,5.87
2023-03-29T15:36:59.462Z,12.40
2023-03-29T15:42:04.347Z,10.63
2023-03-29T15:47:12.146Z,14.47
2023-03-29T15:52:16.268Z,7.53
2023-03-29T15:57:21.975Z,6.60
2023-03-29T16:02:26.635Z,8.20
2023-03-29T16:07:30.318Z,8.67
2023-03-29T16:12:37.914Z,9.03
2023-03-29T16:17:41.775Z,7.57
2023-03-29T16:22:45.199Z,8.77
2023-03-29T16:27:52.871Z,8.87
2023-03-29T16:32:56.935Z,16.27
2023-03-29T16:38:00.541Z,7.30
2023-03-29T16:43:05.684Z,7.60
2023-03-29T16:48:13.316Z,9.07
2023-03-29T16:53:16.753Z,12.23
2023-03-29T16:58:23.265Z,10.63
2023-03-29T17:03:27.824Z,12.07
2023-03-29T17:08:31.561Z,12.63
2023-03-29T17:13:37.660Z,12.60
2023-03-29T17:18:41.410Z,10.03
2023-03-29T17:23:44.882Z,10.87
2023-03-29T17:28:49.727Z,11.80
2023-03-29T17:33:53.756Z,11.47
2023-03-29T17:38:57.710Z,12.57
2023-03-29T17:44:02.560Z,13.17
2023-03-29T17:49:06.828Z,10.87
2023-03-29T17:54:10.392Z,11.77
2023-03-29T17:59:15.326Z,9.93
2023-03-29T18:04:18.757Z,10.00
2023-03-29T18:09:22.213Z,9.00
2023-03-29T18:14:27.355Z,7.73
2023-03-29T18:19:31.763Z,7.80
2023-03-29T18:24:35.342Z,7.07
2023-03-29T18:29:40.824Z,9.33
2023-03-29T18:34:44.323Z,6.23
2023-03-29T18:39:48.132Z,6.53
2023-03-29T18:44:53.319Z,6.63
2023-03-29T18:49:57.838Z,7.83
2023-03-29T18:55:01.289Z,10.23
2023-03-29T19:00:12.636Z,8.87
2023-03-29T19:05:16.097Z,7.17
2023-03-29T19:10:20.260Z,9.00
2023-03-29T19:15:25.502Z,6.97
2023-03-29T19:20:30.036Z,6.40
2023-03-29T19:25:33.629Z,6.77
2023-03-29T19:30:38.769Z,12.10
2023-03-29T19:35:42.296Z,14.07
2023-03-29T19:40:46.710Z,15.00
2023-03-29T19:45:52.130Z,12.50
2023-03-29T19:50:55.579Z,11.47
2023-03-29T19:55:59.925Z,9.00
2023-03-29T20:01:05.249Z,8.03
2023-03-29T20:06:10.445Z,11.00
2023-03-29T20:11:15.981Z,10.03
2023-03-29T20:16:26.170Z,8.87
2023-03-29T20:21:30.076Z,11.37
2023-03-29T20:26:33.737Z,10.97
2023-03-29T20:31:38.680Z,12.70
2023-03-29T20:36:42.662Z,20.33
2023-03-29T20:41:47.928Z,11.30
2023-03-29T20:47:02.413Z,9.87
2023-03-29T20:52:08.470Z,10.10
2023-03-29T20:57:14.669Z,13.73
2023-03-29T21:02:21.929Z,14.33
2023-03-29T21:07:25.567Z,18.50
2023-03-29T21:12:29.014Z,13.87
2023-03-29T21:17:33.932Z,11.43
2023-03-29T21:22:37.689Z,9.90
2023-03-29T21:27:41.736Z,12.50
2023-03-29T21:32:46.634Z,12.20
2023-03-29T21:37:50.085Z,13.23
2023-03-29T21:42:53.445Z,9.23
2023-03-29T21:47:58.279Z,13.63
2023-03-29T21:53:02.130Z,11.80
2023-03-29T21:58:06.161Z,12.80
2023-03-29T22:03:11.338Z,11.50
2023-03-29T22:08:14.737Z,10.60
2023-03-29T22:13:18.540Z,13.83
2023-03-29T22:18:23.705Z,12.57
2023-03-29T22:23:27.824Z,13.67
2023-03-29T22:28:31.839Z,12.13
2023-03-29T22:33:37.558Z,14.50
2023-03-29T22:38:41.209Z,14.67
2023-03-29T22:43:44.924Z,15.17
2023-03-29T22:48:49.926Z,15.33
2023-03-29T22:53:53.473Z,13.17
2023-03-29T22:58:56.879Z,13.20
2023-03-29T23:04:02.018Z,13.27
2023-03-29T23:09:05.616Z,11.87
2023-03-29T23:14:09.614Z,12.80
2023-03-29T23:19:14.847Z,14.43
2023-03-29T23:24:19.177Z,12.50
2023-03-29T23:29:22.823Z,14.80
2023-03-29T23:34:27.705Z,11.67
2023-03-29T23:39:31.656Z,14.37
2023-03-29T23:44:35.008Z,14.10
2023-03-29T23:49:40.214Z,11.60
2023-03-29T23:54:43.707Z,13.57
2023-03-29T23:59:47.464Z,13.17
